createdAt,value
2023-05-18T00:01:36.209Z,11.50
2023-05-18T00:04:04.343Z,11.40
2023-05-18T00:06:31.352Z,11.50
2023-05-18T00:08:58.729Z,11.50
2023-05-18T00:11:26.040Z,11.50
2023-05-18T00:13:53.297Z,11.50
2023-05-18T00:16:20.865Z,11.50
2023-05-18T00:18:48.153Z,11.50
2023-05-18T00:21:16.291Z,11.50
2023-05-18T00:23:49.636Z,11.50
2023-05-18T00:26:16.670Z,11.50
2023-05-18T00:28:44.263Z,11.50
2023-05-18T00:31:11.509Z,11.50
2023-05-18T00:33:38.707Z,11.50
2023-05-18T00:36:06.261Z,11.50
2023-05-18T00:38:33.726Z,11.50
2023-05-18T00:41:00.918Z,11.50
2023-05-18T00:43:28.183Z,11.40
2023-05-18T00:45:55.514Z,11.40
2023-05-18T00:48:22.882Z,11.40
2023-05-18T00:50:50.005Z,11.40
2023-05-18T00:53:17.571Z,11.40
2023-05-18T00:55:44.852Z,11.40
2023-05-18T00:58:12.512Z,11.50
2023-05-18T01:00:40.700Z,11.40
2023-05-18T01:03:11.047Z,11.40
2023-05-18T01:05:38.325Z,11.40
2023-05-18T01:08:05.955Z,11.40
2023-05-18T01:10:38.306Z,11.40
2023-05-18T01:13:25.734Z,11.30
2023-05-18T01:16:00.119Z,11.30
2023-05-18T01:18:56.161Z,11.30
2023-05-18T01:21:43.267Z,11.30
2023-05-18T01:24:45.796Z,11.30
2023-05-18T01:27:18.001Z,11.30
2023-05-18T01:29:48.563Z,11.30
2023-05-18T01:32:23.067Z,11.30
2023-05-18T01:34:51.868Z,11.20
2023-05-18T01:37:18.824Z,11.30
2023-05-18T01:39:46.631Z,11.30
2023-05-18T01:42:25.486Z,11.30
2023-05-18T01:45:01.276Z,11.30
2023-05-18T01:47:33.281Z,11.30
2023-05-18T01:50:12.075Z,11.30
2023-05-18T01:52:51.627Z,11.30
2023-05-18T01:55:21.605Z,11.30
2023-05-18T01:57:52.813Z,11.30
2023-05-18T02:00:23.306Z,11.30
2023-05-18T02:02:50.768Z,11.30
2023-05-18T02:05:19.118Z,11.30
2023-05-18T02:07:47.863Z,11.30
2023-05-18T02:10:16.288Z,11.30
2023-05-18T02:12:44.197Z,11.30
2023-05-18T02:15:12.026Z,11.30
2023-05-18T02:17:39.276Z,11.40
2023-05-18T02:20:08.305Z,11.40
2023-05-18T02:22:36.399Z,11.40
2023-05-18T02:25:05.395Z,11.40
2023-05-18T02:27:33.445Z,11.40
2023-05-18T02:30:00.891Z,11.40
2023-05-18T02:32:28.044Z,11.30
2023-05-18T02:34:55.392Z,11.30
2023-05-18T02:37:23.193Z,11.40
2023-05-18T02:39:50.774Z,11.40
2023-05-18T02:42:17.940Z,11.40
2023-05-18T02:44:45.374Z,11.40
2023-05-18T02:47:15.896Z,11.40
2023-05-18T02:49:43.327Z,11.40
2023-05-18T02:52:10.419Z,11.30
2023-05-18T02:54:37.710Z,11.40
2023-05-18T02:57:12.259Z,11.40
2023-05-18T02:59:49.342Z,11.40
2023-05-18T03:02:16.692Z,11.40
2023-05-18T03:04:44.404Z,11.40
2023-05-18T03:07:11.546Z,11.40
2023-05-18T03:09:38.849Z,11.30
2023-05-18T03:12:06.764Z,11.40
2023-05-18T03:14:34.945Z,11.30
2023-05-18T03:17:05.903Z,11.30
2023-05-18T03:19:34.859Z,11.30
2023-05-18T03:22:01.987Z,11.30
2023-05-18T03:24:30.691Z,11.30
2023-05-18T03:27:00.927Z,11.30
2023-05-18T03:29:30.667Z,11.30
2023-05-18T03:31:58.805Z,11.30
2023-05-18T03:34:26.269Z,11.20
2023-05-18T03:36:54.741Z,11.20
2023-05-18T03:39:22.421Z,11.30
2023-05-18T03:41:49.431Z,11.20
2023-05-18T03:44:16.794Z,11.30
2023-05-18T03:46:43.965Z,11.20
2023-05-18T03:49:11.721Z,11.20
2023-05-18T03:51:42.866Z,11.20
2023-05-18T03:54:10.606Z,11.20
2023-05-18T03:56:38.032Z,11.20
2023-05-18T03:59:06.422Z,11.20
2023-05-18T04:01:33.880Z,11.20
2023-05-18T04:04:01.430Z,11.20
2023-05-18T04:06:30.012Z,11.10
2023-05-18T04:08:57.362Z,11.10
2023-05-18T04:11:25.976Z,11.10
2023-05-18T04:13:53.229Z,11.10
2023-05-18T04:16:22.101Z,11.10
2023-05-18T04:18:50.002Z,11.20
2023-05-18T04:21:17.726Z,11.10
2023-05-18T04:23:47.254Z,11.00
2023-05-18T04:26:20.114Z,10.90
2023-05-18T04:28:48.025Z,10.40
2023-05-18T04:31:15.234Z,10.00
2023-05-18T04:33:46.512Z,9.80
2023-05-18T04:36:13.658Z,9.70
2023-05-18T04:38:41.200Z,9.70
2023-05-18T04:41:09.102Z,9.60
2023-05-18T04:43:37.236Z,9.50
2023-05-18T04:46:07.016Z,9.50
2023-05-18T04:48:35.142Z,9.40
2023-05-18T04:51:04.867Z,9.20
2023-05-18T04:53:33.624Z,9.10
2023-05-18T04:56:02.363Z,9.00
2023-05-18T04:58:30.754Z,9.00
2023-05-18T05:00:57.991Z,8.80
2023-05-18T05:03:25.293Z,8.90
2023-05-18T05:05:52.397Z,9.00
2023-05-18T05:08:19.636Z,8.90
2023-05-18T05:10:46.699Z,8.90
2023-05-18T05:13:14.237Z,8.90
2023-05-18T05:15:41.332Z,8.90
2023-05-18T05:18:08.943Z,8.80
2023-05-18T05:20:36.226Z,8.70
2023-05-18T05:23:03.768Z,9.00
2023-05-18T05:25:32.419Z,9.00
2023-05-18T05:27:59.938Z,9.10
2023-05-18T05:30:27.189Z,9.00
2023-05-18T05:32:54.621Z,8.90
2023-05-18T05:35:21.868Z,8.90
2023-05-18T05:37:49.368Z,9.20
2023-05-18T05:40:17.010Z,9.30
2023-05-18T05:42:46.909Z,9.50
2023-05-18T05:45:14.411Z,9.20
2023-05-18T05:47:55.506Z,9.30
2023-05-18T05:50:24.301Z,9.40
2023-05-18T05:52:54.232Z,9.60
2023-05-18T05:55:23.334Z,9.40
2023-05-18T05:57:51.724Z,9.70
2023-05-18T06:00:20.141Z,9.80
2023-05-18T06:02:58.989Z,10.00
2023-05-18T06:05:52.441Z,10.20
2023-05-18T06:08:24.233Z,10.40
2023-05-18T06:10:52.460Z,10.50
2023-05-18T06:13:19.728Z,10.50
2023-05-18T06:15:55.412Z,10.60
2023-05-18T06:18:24.504Z,10.40
2023-05-18T06:20:54.515Z,10.40
2023-05-18T06:23:23.721Z,10.40
2023-05-18T06:26:09.490Z,10.30
2023-05-18T06:28:51.474Z,10.30
2023-05-18T06:31:30.395Z,10.30
2023-05-18T06:34:20.077Z,10.00
2023-05-18T06:36:47.485Z,10.20
2023-05-18T06:39:15.035Z,10.10
2023-05-18T06:41:42.356Z,10.40
2023-05-18T06:44:09.789Z,10.30
2023-05-18T06:46:38.133Z,10.40
2023-05-18T06:49:14.767Z,10.40
2023-05-18T06:51:44.074Z,10.20
2023-05-18T06:54:12.021Z,10.30
2023-05-18T06:56:39.486Z,10.10
2023-05-18T06:59:06.892Z,10.10
2023-05-18T07:01:34.486Z,10.20
2023-05-18T07:04:04.232Z,10.50
2023-05-18T07:06:31.345Z,10.40
2023-05-18T07:08:58.775Z,10.40
2023-05-18T07:11:28.071Z,10.50
2023-05-18T07:13:56.897Z,10.70
2023-05-18T07:16:23.838Z,10.90
2023-05-18T07:18:51.416Z,10.80
2023-05-18T07:21:18.544Z,10.80
2023-05-18T07:23:46.304Z,10.70
2023-05-18T07:26:13.486Z,10.70
2023-05-18T07:28:40.983Z,10.60
2023-05-18T07:31:08.122Z,10.60
2023-05-18T07:33:35.964Z,10.70
2023-05-18T07:36:03.113Z,10.80
2023-05-18T07:38:30.483Z,10.80
2023-05-18T07:40:59.864Z,11.00
2023-05-18T07:43:27.265Z,10.90
2023-05-18T07:45:54.452Z,10.90
2023-05-18T07:48:21.752Z,11.00
2023-05-18T07:50:48.923Z,11.10
2023-05-18T07:53:16.252Z,11.20
2023-05-18T07:55:43.445Z,11.20
2023-05-18T07:58:10.754Z,11.20
2023-05-18T08:00:37.882Z,11.10
2023-05-18T08:03:06.955Z,11.20
2023-05-18T08:05:34.214Z,11.00
2023-05-18T08:08:05.133Z,11.00
2023-05-18T08:10:34.260Z,10.90
2023-05-18T08:13:01.691Z,10.70
2023-05-18T08:15:29.520Z,10.60
2023-05-18T08:17:57.212Z,10.80
2023-05-18T08:20:25.707Z,11.10
2023-05-18T08:22:53.102Z,11.10
2023-05-18T08:25:21.140Z,11.10
2023-05-18T08:27:49.281Z,10.60
2023-05-18T08:30:16.433Z,10.90
2023-05-18T08:32:44.134Z,10.60
2023-05-18T08:35:11.361Z,10.60
2023-05-18T08:37:39.929Z,10.70
2023-05-18T08:40:08.102Z,10.80
2023-05-18T08:42:49.931Z,11.00
2023-05-18T08:46:00.054Z,11.20
2023-05-18T08:48:31.984Z,11.30
2023-05-18T08:51:03.605Z,11.40
2023-05-18T08:53:33.831Z,11.20
2023-05-18T08:56:02.322Z,10.80
2023-05-18T08:58:45.324Z,10.70
2023-05-18T09:01:13.935Z,10.60
2023-05-18T09:03:42.281Z,10.80
2023-05-18T09:06:10.428Z,10.90
2023-05-18T09:08:38.967Z,10.70
2023-05-18T09:11:06.828Z,10.80
2023-05-18T09:13:34.398Z,10.50
2023-05-18T09:16:02.477Z,10.40
2023-05-18T09:18:30.749Z,10.40
2023-05-18T09:20:58.069Z,10.40
2023-05-18T09:23:25.761Z,10.60
2023-05-18T09:25:53.137Z,10.90
2023-05-18T09:28:33.387Z,10.90
2023-05-18T09:31:00.646Z,10.90
2023-05-18T09:33:35.568Z,10.90
2023-05-18T09:36:09.486Z,11.10
2023-05-18T09:38:48.580Z,10.90
2023-05-18T09:41:17.853Z,10.90
2023-05-18T09:43:48.090Z,11.20
2023-05-18T09:46:15.386Z,11.50
2023-05-18T09:48:46.617Z,11.50
2023-05-18T09:51:16.902Z,11.60
2023-05-18T09:53:56.613Z,11.80
2023-05-18T09:56:27.014Z,11.90
2023-05-18T09:58:55.337Z,11.90
2023-05-18T10:01:23.014Z,11.80
2023-05-18T10:03:51.004Z,11.70
2023-05-18T10:06:20.000Z,11.70
2023-05-18T10:08:47.783Z,11.80
2023-05-18T10:11:20.179Z,11.70
2023-05-18T10:13:47.598Z,11.60
2023-05-18T10:16:16.752Z,11.80
2023-05-18T10:18:46.012Z,11.90
2023-05-18T10:21:16.149Z,11.90
2023-05-18T10:23:48.241Z,11.90
2023-05-18T10:26:22.861Z,11.70
2023-05-18T10:28:53.665Z,11.70
2023-05-18T10:31:23.469Z,11.70
2023-05-18T10:33:52.750Z,11.70
2023-05-18T10:36:22.120Z,11.80
2023-05-18T10:38:49.865Z,11.80
2023-05-18T10:41:22.778Z,11.80
2023-05-18T10:43:52.030Z,11.90
2023-05-18T10:46:21.467Z,11.90
2023-05-18T10:48:53.847Z,11.90
2023-05-18T10:51:22.788Z,11.90
2023-05-18T10:53:50.822Z,12.10
2023-05-18T10:56:18.338Z,12.10
2023-05-18T10:58:47.695Z,12.20
2023-05-18T11:01:16.028Z,12.20
2023-05-18T11:03:43.410Z,12.20
2023-05-18T11:06:14.743Z,12.20
2023-05-18T11:08:51.039Z,12.20
2023-05-18T11:11:23.440Z,12.20
2023-05-18T11:13:51.909Z,12.20
2023-05-18T11:16:21.178Z,12.20
2023-05-18T11:18:52.511Z,12.20
2023-05-18T11:21:50.423Z,12.30
2023-05-18T11:24:32.109Z,12.20
2023-05-18T11:27:07.369Z,12.30
2023-05-18T11:29:46.799Z,12.00
2023-05-18T11:32:31.082Z,12.20
2023-05-18T11:34:59.833Z,12.20
2023-05-18T11:37:38.922Z,12.20
2023-05-18T11:40:30.459Z,12.30
2023-05-18T11:42:58.953Z,12.30
2023-05-18T11:45:26.510Z,12.30
2023-05-18T11:48:03.055Z,12.30
2023-05-18T11:50:31.089Z,12.30
2023-05-18T11:52:59.706Z,12.30
2023-05-18T11:55:41.195Z,12.30
2023-05-18T11:58:10.470Z,12.20
2023-05-18T12:00:38.454Z,12.20
2023-05-18T12:03:07.548Z,12.30
2023-05-18T12:05:36.576Z,12.30
2023-05-18T12:08:04.711Z,12.30
2023-05-18T12:10:34.625Z,12.30
2023-05-18T12:13:03.106Z,12.40
2023-05-18T12:15:32.118Z,12.40
2023-05-18T12:17:59.408Z,12.30
2023-05-18T12:20:28.251Z,12.20
2023-05-18T12:22:56.352Z,12.20
2023-05-18T12:25:26.908Z,12.20
2023-05-18T12:27:55.326Z,12.30
2023-05-18T12:30:35.794Z,12.30
2023-05-18T12:33:04.429Z,12.40
2023-05-18T12:35:33.227Z,12.50
2023-05-18T12:38:01.510Z,12.30
2023-05-18T12:40:48.732Z,12.40
2023-05-18T12:43:16.463Z,12.50
2023-05-18T12:45:44.882Z,12.50
2023-05-18T12:48:13.481Z,12.50
2023-05-18T12:50:49.164Z,12.60
2023-05-18T12:53:17.524Z,12.70
2023-05-18T12:55:45.327Z,12.70
2023-05-18T12:58:16.778Z,12.70
2023-05-18T13:00:47.097Z,12.70
2023-05-18T13:03:22.035Z,12.80
2023-05-18T13:06:05.987Z,12.80
2023-05-18T13:08:35.726Z,12.90
2023-05-18T13:11:14.464Z,13.00
2023-05-18T13:14:03.585Z,12.90
2023-05-18T13:16:34.436Z,13.00
2023-05-18T13:19:06.978Z,12.90
2023-05-18T13:21:35.737Z,13.00
2023-05-18T13:24:04.810Z,13.10
2023-05-18T13:26:33.017Z,13.10
2023-05-18T13:29:00.409Z,13.10
2023-05-18T13:31:29.652Z,13.10
2023-05-18T13:33:57.393Z,13.10
2023-05-18T13:36:24.979Z,13.10
2023-05-18T13:38:52.505Z,13.10
2023-05-18T13:41:19.865Z,13.10
2023-05-18T13:43:46.893Z,13.10
2023-05-18T13:46:14.479Z,13.10
2023-05-18T13:48:41.478Z,13.00
2023-05-18T13:51:08.882Z,13.00
2023-05-18T13:53:37.992Z,13.00
2023-05-18T13:56:06.400Z,13.00
2023-05-18T13:58:33.309Z,13.00
2023-05-18T14:01:03.925Z,12.90
2023-05-18T14:03:33.963Z,12.70
2023-05-18T14:06:01.360Z,12.80
2023-05-18T14:08:28.539Z,12.90
2023-05-18T14:10:56.256Z,12.80
2023-05-18T14:13:23.184Z,12.80
2023-05-18T14:15:50.493Z,12.80
2023-05-18T14:18:17.674Z,12.80
2023-05-18T14:20:46.448Z,12.80
2023-05-18T14:23:13.410Z,12.70
2023-05-18T14:25:40.809Z,12.70
2023-05-18T14:28:07.974Z,12.70
2023-05-18T14:30:35.335Z,12.60
2023-05-18T14:33:02.393Z,12.60
2023-05-18T14:35:29.690Z,12.60
2023-05-18T14:37:56.648Z,12.60
2023-05-18T14:40:24.045Z,12.60
2023-05-18T14:42:53.661Z,12.60
2023-05-18T14:45:21.375Z,12.60
2023-05-18T14:47:48.528Z,12.60
2023-05-18T14:50:16.536Z,12.60
2023-05-18T14:52:43.665Z,12.50
2023-05-18T14:55:11.025Z,12.50
2023-05-18T14:57:38.047Z,12.50
2023-05-18T15:00:06.187Z,12.50
2023-05-18T15:02:33.312Z,12.20
2023-05-18T15:05:00.876Z,12.20
2023-05-18T15:07:27.957Z,12.20
2023-05-18T15:09:55.516Z,12.20
2023-05-18T15:12:23.361Z,12.30
2023-05-18T15:14:50.935Z,11.90
2023-05-18T15:17:18.169Z,12.00
2023-05-18T15:19:45.654Z,11.80
2023-05-18T15:22:12.956Z,11.80
2023-05-18T15:24:40.291Z,11.70
2023-05-18T15:27:08.836Z,11.90
2023-05-18T15:29:36.140Z,12.10
2023-05-18T15:32:03.699Z,12.20
2023-05-18T15:34:33.368Z,12.20
2023-05-18T15:37:01.404Z,12.30
2023-05-18T15:39:30.207Z,12.30
2023-05-18T15:41:57.116Z,12.30
2023-05-18T15:44:24.457Z,12.40
2023-05-18T15:46:51.870Z,12.30
2023-05-18T15:49:21.330Z,12.30
2023-05-18T15:51:48.439Z,12.30
2023-05-18T15:54:16.013Z,12.20
2023-05-18T15:56:43.523Z,12.20
2023-05-18T15:59:10.971Z,12.20
2023-05-18T16:01:38.127Z,12.20
2023-05-18T16:04:08.331Z,12.20
2023-05-18T16:06:36.221Z,12.10
2023-05-18T16:09:04.070Z,12.10
2023-05-18T16:11:31.286Z,12.10
2023-05-18T16:14:00.685Z,12.10
2023-05-18T16:16:28.062Z,12.10
2023-05-18T16:18:56.000Z,12.10
2023-05-18T16:21:24.015Z,12.10
2023-05-18T16:23:51.603Z,12.10
2023-05-18T16:26:18.867Z,12.00
2023-05-18T16:28:46.380Z,11.90
2023-05-18T16:31:13.583Z,11.90
2023-05-18T16:33:41.047Z,12.00
2023-05-18T16:36:08.486Z,12.00
2023-05-18T16:38:37.368Z,12.00
2023-05-18T16:41:05.506Z,12.10
2023-05-18T16:43:34.024Z,12.10
2023-05-18T16:46:02.518Z,12.10
2023-05-18T16:48:29.915Z,12.10
2023-05-18T16:50:57.009Z,12.10
2023-05-18T16:53:25.631Z,12.10
2023-05-18T16:55:52.862Z,12.20
2023-05-18T16:58:20.941Z,12.10
2023-05-18T17:00:47.988Z,12.10
2023-05-18T17:03:17.516Z,12.10
2023-05-18T17:05:45.372Z,12.00
2023-05-18T17:08:13.430Z,12.00
2023-05-18T17:10:41.116Z,11.90
2023-05-18T17:13:08.784Z,11.90
2023-05-18T17:15:36.035Z,11.80
2023-05-18T17:18:03.526Z,11.90
2023-05-18T17:20:31.120Z,11.90
2023-05-18T17:23:01.143Z,11.90
2023-05-18T17:25:29.036Z,11.80
2023-05-18T17:27:58.588Z,11.80
2023-05-18T17:30:25.767Z,11.70
2023-05-18T17:32:53.933Z,11.70
2023-05-18T17:35:20.960Z,11.80
2023-05-18T17:37:48.872Z,11.80
2023-05-18T17:40:16.085Z,11.80
2023-05-18T17:42:43.547Z,11.80
2023-05-18T17:45:10.958Z,11.80
2023-05-18T17:47:38.455Z,11.70
2023-05-18T17:50:06.656Z,11.70
2023-05-18T17:52:33.914Z,11.80
2023-05-18T17:55:01.456Z,11.70
2023-05-18T17:57:30.446Z,11.70
2023-05-18T17:59:57.553Z,11.70
2023-05-18T18:02:30.174Z,11.70
2023-05-18T18:04:57.811Z,11.70
2023-05-18T18:08:16.821Z,11.70
2023-05-18T18:10:44.191Z,11.70
2023-05-18T18:13:11.545Z,11.60
2023-05-18T18:15:38.723Z,11.50
2023-05-18T18:18:06.459Z,11.10
2023-05-18T18:25:12.563Z,11.00
2023-05-18T18:27:40.851Z,10.80
2023-05-18T18:30:10.879Z,10.70
2023-05-18T18:32:38.214Z,10.40
2023-05-18T18:35:07.091Z,10.20
2023-05-18T18:37:34.245Z,10.30
2023-05-18T18:40:01.695Z,10.50
2023-05-18T18:42:28.836Z,10.30
2023-05-18T18:44:56.785Z,10.30
2023-05-18T18:47:24.623Z,10.50
2023-05-18T18:49:52.659Z,10.40
2023-05-18T18:52:19.738Z,10.50
2023-05-18T18:54:47.139Z,10.60
2023-05-18T18:57:14.341Z,10.50
2023-05-18T19:00:11.383Z,10.70
2023-05-18T19:02:39.042Z,10.80
2023-05-18T19:05:09.048Z,10.70
2023-05-18T19:07:37.021Z,10.80
2023-05-18T19:10:05.943Z,10.80
2023-05-18T19:12:33.112Z,10.90
2023-05-18T19:15:00.409Z,11.00
2023-05-18T19:17:27.646Z,10.90
2023-05-18T19:19:55.083Z,11.00
2023-05-18T19:22:22.143Z,11.00
2023-05-18T19:24:49.310Z,10.80
2023-05-18T19:27:16.297Z,11.00
2023-05-18T19:29:43.561Z,11.00
2023-05-18T19:32:10.591Z,11.00
2023-05-18T19:34:38.120Z,11.10
2023-05-18T19:48:00.482Z,11.10
2023-05-18T19:50:28.480Z,11.00
2023-05-18T19:52:56.438Z,11.00
2023-05-18T20:00:23.799Z,10.90
2023-05-18T20:02:51.696Z,10.80
2023-05-18T20:05:19.428Z,10.80
2023-05-18T20:07:46.568Z,10.80
2023-05-18T20:10:13.998Z,10.90
2023-05-18T20:12:41.254Z,10.70
2023-05-18T20:15:09.634Z,10.70
2023-05-18T20:17:37.476Z,10.60
2023-05-18T20:20:06.101Z,10.70
2023-05-18T20:22:36.259Z,10.70
2023-05-18T20:30:02.608Z,10.90
2023-05-18T20:32:32.614Z,10.70
2023-05-18T20:34:59.706Z,10.80
2023-05-18T20:37:27.318Z,10.60
2023-05-18T20:39:57.337Z,10.80
2023-05-18T20:43:42.110Z,10.80
2023-05-18T20:51:34.600Z,10.60
2023-05-18T20:58:35.599Z,10.70
2023-05-18T21:01:08.582Z,10.80
2023-05-18T21:03:36.532Z,10.80
2023-05-18T21:06:04.311Z,10.80
2023-05-18T21:08:32.757Z,10.80
2023-05-18T21:12:44.905Z,10.80
2023-05-18T21:15:13.336Z,10.90
2023-05-18T21:17:40.627Z,11.00
2023-05-18T21:20:09.873Z,10.90
2023-05-18T21:22:37.222Z,10.80
2023-05-18T21:25:06.156Z,10.90
2023-05-18T21:27:33.840Z,10.90
2023-05-18T21:30:01.148Z,10.90
2023-05-18T21:32:28.731Z,10.80
2023-05-18T21:34:56.268Z,10.90
2023-05-18T21:37:23.287Z,10.90
2023-05-18T21:39:50.651Z,10.80
2023-05-18T21:42:17.720Z,10.80
2023-05-18T21:44:45.080Z,10.80
2023-05-18T21:47:12.033Z,10.50
2023-05-18T21:49:39.547Z,10.70
2023-05-18T21:58:17.709Z,10.80
2023-05-18T22:00:45.629Z,10.80
2023-05-18T22:03:12.747Z,10.80
2023-05-18T22:05:44.650Z,10.70
2023-05-18T22:08:11.860Z,10.70
2023-05-18T22:10:39.346Z,10.70
2023-05-18T22:13:06.622Z,10.70
2023-05-18T22:15:36.075Z,10.50
2023-05-18T22:18:04.100Z,10.30
2023-05-18T22:20:33.262Z,10.40
2023-05-18T22:23:00.616Z,10.40
2023-05-18T22:25:28.012Z,10.20
2023-05-18T22:27:55.520Z,10.00
2023-05-18T22:30:27.773Z,10.30
2023-05-18T22:38:15.757Z,10.30
2023-05-18T23:08:26.101Z,10.10
2023-05-18T23:10:53.709Z,10.00
2023-05-18T23:13:21.106Z,10.10
2023-05-18T23:15:48.742Z,10.20
2023-05-18T23:18:16.060Z,10.10
2023-05-18T23:20:43.675Z,10.20
2023-05-18T23:23:10.718Z,10.30
2023-05-18T23:25:38.021Z,10.40
2023-05-18T23:28:05.152Z,10.30
2023-05-18T23:30:32.879Z,10.20
2023-05-18T23:33:00.965Z,10.20
2023-05-18T23:35:29.250Z,10.30
2023-05-18T23:38:04.739Z,10.20
2023-05-18T23:40:40.047Z,10.00
2023-05-18T23:43:08.263Z,10.00
2023-05-18T23:45:59.683Z,10.20
2023-05-18T23:49:49.491Z,9.90
